createdAt,value
2023-02-25T00:01:08.847Z,5.72
2023-02-25T00:03:36.728Z,5.69
2023-02-25T00:06:05.197Z,5.87
2023-02-25T00:08:34.822Z,5.95
2023-02-25T00:11:05.742Z,5.93
2023-02-25T00:13:34.130Z,5.93
2023-02-25T00:16:04.216Z,5.72
2023-02-25T00:18:32.004Z,5.88
2023-02-25T00:21:03.063Z,5.71
2023-02-25T00:23:30.721Z,5.75
2023-02-25T00:26:05.507Z,5.66
2023-02-25T00:28:34.362Z,5.83
2023-02-25T00:31:07.166Z,5.68
2023-02-25T00:33:35.055Z,5.60
2023-02-25T00:36:08.623Z,5.32
2023-02-25T00:38:38.424Z,5.55
2023-02-25T00:41:12.625Z,5.31
2023-02-25T00:43:42.324Z,5.60
2023-02-25T00:46:10.818Z,5.55
2023-02-25T00:48:39.146Z,5.45
2023-02-25T00:51:11.715Z,5.70
2023-02-25T00:53:40.612Z,5.39
2023-02-25T00:56:15.047Z,5.49
2023-02-25T00:58:43.760Z,5.59
2023-02-25T01:04:20.588Z,5.54
2023-02-25T01:12:13.075Z,5.41
2023-02-25T01:17:22.908Z,5.23
2023-02-25T01:19:50.917Z,5.46
2023-02-25T01:22:18.954Z,5.33
2023-02-25T01:24:46.794Z,5.30
2023-02-25T01:28:08.650Z,5.25
2023-02-25T01:33:51.573Z,5.45
2023-02-25T01:36:24.988Z,5.31
2023-02-25T01:38:53.251Z,5.26
2023-02-25T01:41:20.965Z,5.57
2023-02-25T01:44:15.253Z,5.42
2023-02-25T01:46:48.717Z,5.49
2023-02-25T01:49:19.442Z,5.30
2023-02-25T01:51:49.862Z,5.18
2023-02-25T01:54:18.750Z,5.22
2023-02-25T01:56:50.906Z,5.29
2023-02-25T01:59:20.129Z,5.23
2023-02-25T02:01:50.973Z,5.16
2023-02-25T02:04:19.879Z,5.34
2023-02-25T02:06:49.775Z,5.08
2023-02-25T02:09:20.159Z,5.29
2023-02-25T02:11:48.572Z,5.43
2023-02-25T02:14:18.957Z,5.29
2023-02-25T02:17:06.148Z,5.06
2023-02-25T02:19:43.460Z,5.15
2023-02-25T02:22:14.064Z,5.24
2023-02-25T02:24:56.791Z,5.30
2023-02-25T02:27:25.829Z,5.34
2023-02-25T02:30:17.521Z,5.52
2023-02-25T02:32:49.630Z,5.25
2023-02-25T02:35:22.437Z,5.25
2023-02-25T02:38:00.974Z,5.31
2023-02-25T02:40:46.463Z,5.14
2023-02-25T02:43:25.135Z,5.14
2023-02-25T02:45:59.852Z,5.13
2023-02-25T02:48:35.878Z,5.16
2023-02-25T02:51:06.262Z,5.25
2023-02-25T03:53:35.285Z,5.16
2023-02-25T04:06:35.267Z,4.73
2023-02-25T04:09:06.363Z,4.94
2023-02-25T04:11:34.441Z,4.77
2023-02-25T04:14:02.209Z,4.85
2023-02-25T04:16:30.005Z,4.76
2023-02-25T04:19:00.212Z,4.91
2023-02-25T04:21:30.090Z,4.88
2023-02-25T04:23:58.281Z,5.18
2023-02-25T04:26:28.046Z,4.84
2023-02-25T04:28:55.841Z,4.90
2023-02-25T04:31:24.257Z,4.96
2023-02-25T04:33:52.324Z,4.93
2023-02-25T04:36:25.476Z,4.77
2023-02-25T04:38:53.327Z,4.83
2023-02-25T04:41:21.125Z,4.87
2023-02-25T04:43:50.185Z,5.06
2023-02-25T04:57:13.232Z,4.89
2023-02-25T05:02:34.938Z,4.68
2023-02-25T05:05:02.892Z,4.50
2023-02-25T05:10:07.140Z,4.84
2023-02-25T05:12:34.829Z,4.63
2023-02-25T05:15:05.297Z,4.78
2023-02-25T05:17:33.614Z,4.58
2023-02-25T05:20:01.844Z,4.39
2023-02-25T05:22:30.047Z,4.63
2023-02-25T05:24:57.877Z,4.51
2023-02-25T05:27:25.603Z,4.55
2023-02-25T05:29:54.751Z,4.65
2023-02-25T05:32:24.108Z,4.52
2023-02-25T05:34:52.010Z,4.66
2023-02-25T05:37:19.816Z,4.70
2023-02-25T05:39:47.495Z,4.64
2023-02-25T05:42:15.264Z,4.75
2023-02-25T05:44:43.055Z,4.58
2023-02-25T05:47:11.028Z,4.54
2023-02-25T05:49:40.314Z,4.60
2023-02-25T05:52:08.048Z,4.74
2023-02-25T05:54:35.783Z,4.72
2023-02-25T05:57:03.496Z,4.67
2023-02-25T05:59:32.112Z,4.75
2023-02-25T06:01:59.890Z,4.75
2023-02-25T06:04:30.529Z,4.68
2023-02-25T06:09:43.911Z,4.62
2023-02-25T06:12:11.601Z,4.63
2023-02-25T06:14:39.351Z,4.65
2023-02-25T06:17:07.022Z,4.51
2023-02-25T06:19:34.717Z,4.64
2023-02-25T06:22:03.243Z,4.63
2023-02-25T06:27:19.024Z,4.68
2023-02-25T06:29:48.283Z,4.67
2023-02-25T06:32:28.656Z,4.67
2023-02-25T06:34:57.010Z,4.87
2023-02-25T06:53:39.814Z,4.49
2023-02-25T06:58:58.353Z,4.55
2023-02-25T07:01:46.811Z,4.65
2023-02-25T07:04:18.247Z,4.99
2023-02-25T07:07:11.805Z,4.96
2023-02-25T07:15:02.514Z,4.79
2023-02-25T07:17:30.868Z,4.70
2023-02-25T07:19:58.963Z,4.60
2023-02-25T07:22:26.958Z,4.82
2023-02-25T07:24:54.927Z,4.87
2023-02-25T07:27:22.814Z,4.85
2023-02-25T07:29:56.374Z,4.87
2023-02-25T07:32:31.231Z,4.54
2023-02-25T07:34:59.892Z,4.56
2023-02-25T07:37:27.838Z,4.33
2023-02-25T07:39:58.394Z,4.39
2023-02-25T07:42:27.413Z,4.45
2023-02-25T07:44:56.540Z,4.59
2023-02-25T07:47:28.902Z,4.44
2023-02-25T07:50:01.252Z,4.32
2023-02-25T07:52:32.232Z,4.35
2023-02-25T07:55:01.110Z,4.43
2023-02-25T07:57:39.441Z,4.26
2023-02-25T08:00:11.821Z,4.25
2023-02-25T08:02:50.233Z,4.40
2023-02-25T08:05:23.442Z,4.61
2023-02-25T08:07:53.587Z,4.72
2023-02-25T08:10:24.542Z,4.55
2023-02-25T08:12:53.139Z,4.61
2023-02-25T08:15:21.812Z,4.83
2023-02-25T08:17:53.547Z,4.83
2023-02-25T08:20:21.796Z,4.78
2023-02-25T08:22:51.089Z,4.62
2023-02-25T08:25:20.604Z,4.55
2023-02-25T08:27:48.895Z,4.56
2023-02-25T08:30:17.492Z,4.61
2023-02-25T08:32:49.439Z,4.55
2023-02-25T08:35:20.655Z,4.63
2023-02-25T08:38:03.857Z,4.48
2023-02-25T08:40:33.839Z,4.67
2023-02-25T08:43:03.175Z,4.68
2023-02-25T08:45:31.149Z,4.74
2023-02-25T08:47:59.065Z,4.58
2023-02-25T08:53:25.428Z,4.43
2023-02-25T08:58:35.617Z,4.77
2023-02-25T09:01:12.532Z,4.64
2023-02-25T09:06:23.913Z,4.58
2023-02-25T09:22:46.165Z,4.66
2023-02-25T09:25:19.025Z,4.56
2023-02-25T09:27:47.254Z,4.72
2023-02-25T09:30:18.532Z,4.79
2023-02-25T09:40:55.909Z,4.73
2023-02-25T09:51:30.205Z,4.83
2023-02-25T09:54:12.322Z,4.69
2023-02-25T09:59:24.640Z,4.85
2023-02-25T10:07:16.130Z,4.99
2023-02-25T10:09:50.024Z,4.78
2023-02-25T10:12:28.130Z,4.88
2023-02-25T10:15:25.258Z,4.63
2023-02-25T10:18:05.789Z,4.67
2023-02-25T10:20:45.250Z,4.70
2023-02-25T10:28:47.036Z,4.46
2023-02-25T11:06:17.485Z,4.61
2023-02-25T11:08:48.476Z,4.71
2023-02-25T11:13:58.153Z,4.49
2023-02-25T11:59:56.454Z,4.47
2023-02-25T12:05:27.935Z,4.32
2023-02-25T12:11:00.520Z,4.56
2023-02-25T12:22:03.754Z,4.47
2023-02-25T12:24:52.297Z,4.62
2023-02-25T12:27:39.806Z,4.48
2023-02-25T12:36:29.493Z,4.55
2023-02-25T12:39:23.307Z,4.44
2023-02-25T12:42:01.101Z,4.37
2023-02-25T13:40:44.491Z,4.62
2023-02-25T13:43:28.535Z,4.80
2023-02-25T13:46:03.704Z,4.69
2023-02-25T13:48:47.020Z,4.70
2023-02-25T13:51:42.227Z,4.92
2023-02-25T13:54:36.048Z,4.77
2023-02-25T13:57:26.517Z,4.69
2023-02-25T14:06:38.272Z,4.83
2023-02-25T14:23:33.780Z,4.89
2023-02-25T14:56:22.949Z,4.84
2023-02-25T14:59:07.357Z,5.06
2023-02-25T15:01:44.381Z,4.84
2023-02-25T15:04:25.262Z,4.85
2023-02-25T15:07:01.127Z,4.79
2023-02-25T15:09:46.847Z,4.92
2023-02-25T15:12:24.950Z,4.85
2023-02-25T15:15:26.942Z,4.81
2023-02-25T15:18:34.427Z,4.74
2023-02-25T15:21:55.454Z,4.80
2023-02-25T15:24:44.277Z,4.66
2023-02-25T15:27:46.881Z,4.88
2023-02-25T15:30:21.966Z,4.82
2023-02-25T15:33:14.044Z,4.61
2023-02-25T15:36:01.359Z,4.60
2023-02-25T15:38:54.243Z,4.56
2023-02-25T15:41:44.845Z,4.70
2023-02-25T15:44:35.792Z,4.53
2023-02-25T15:47:28.068Z,4.71
2023-02-25T15:50:01.280Z,4.68
2023-02-25T15:52:54.605Z,4.67
2023-02-25T15:55:35.878Z,4.69
2023-02-25T15:58:04.442Z,4.55
2023-02-25T16:00:58.512Z,4.45
2023-02-25T16:03:39.724Z,4.63
2023-02-25T16:06:12.508Z,4.61
2023-02-25T16:08:44.453Z,4.64
2023-02-25T16:11:22.755Z,4.66
2023-02-25T16:13:51.158Z,4.75
2023-02-25T16:16:19.058Z,4.67
2023-02-25T16:18:50.503Z,4.67
2023-02-25T16:21:23.880Z,4.48
2023-02-25T16:23:51.730Z,4.55
2023-02-25T16:26:31.237Z,4.47
2023-02-25T16:29:11.210Z,4.49
2023-02-25T16:31:43.362Z,4.37
2023-02-25T16:34:16.303Z,4.39
2023-02-25T16:36:49.054Z,4.52
2023-02-25T16:39:19.675Z,4.54
2023-02-25T16:41:47.592Z,4.29
2023-02-25T16:44:20.040Z,4.40
2023-02-25T16:46:51.011Z,4.33
2023-02-25T16:49:22.995Z,4.35
2023-02-25T16:51:54.284Z,4.31
2023-02-25T16:54:24.220Z,4.40
2023-02-25T16:56:55.414Z,4.32
2023-02-25T16:59:24.069Z,4.33
2023-02-25T17:01:56.852Z,4.19
2023-02-25T17:04:29.524Z,4.31
2023-02-25T17:07:14.367Z,4.42
2023-02-25T17:09:46.529Z,4.30
2023-02-25T17:12:17.792Z,4.21
2023-02-25T17:14:47.137Z,4.39
2023-02-25T17:17:18.242Z,4.25
2023-02-25T17:19:47.262Z,4.43
2023-02-25T17:22:20.275Z,4.63
2023-02-25T17:24:48.024Z,4.49
2023-02-25T17:27:15.726Z,4.42
2023-02-25T17:29:43.305Z,4.22
2023-02-25T17:32:20.070Z,4.47
2023-02-25T17:34:51.313Z,4.37
2023-02-25T17:37:19.615Z,4.57
2023-02-25T17:39:47.980Z,4.76
2023-02-25T17:42:30.217Z,4.91
2023-02-25T17:44:58.653Z,5.06
2023-02-25T17:47:28.490Z,5.08
2023-02-25T17:49:59.069Z,4.76
2023-02-25T17:52:28.311Z,5.03
2023-02-25T17:54:59.664Z,4.98
2023-02-25T17:57:29.324Z,4.93
2023-02-25T18:00:05.511Z,4.87
2023-02-25T18:02:37.916Z,5.00
2023-02-25T18:05:31.349Z,5.11
2023-02-25T18:08:15.144Z,5.04
2023-02-25T18:10:55.370Z,4.63
2023-02-25T18:13:27.779Z,4.89
2023-02-25T18:16:31.997Z,4.74
2023-02-25T18:19:03.070Z,4.41
2023-02-25T18:21:32.427Z,4.52
2023-02-25T18:24:03.411Z,4.76
2023-02-25T18:26:31.752Z,4.52
2023-02-25T18:28:59.202Z,4.68
2023-02-25T18:31:26.903Z,4.48
2023-02-25T18:33:55.041Z,4.26
2023-02-25T18:36:25.671Z,4.46
2023-02-25T18:38:56.749Z,4.35
2023-02-25T18:41:25.938Z,4.24
2023-02-25T18:43:54.522Z,4.42
2023-02-25T18:46:22.621Z,4.77
2023-02-25T18:48:51.034Z,4.73
2023-02-25T18:51:19.642Z,4.36
2023-02-25T18:53:47.174Z,4.45
2023-02-25T18:56:17.954Z,4.39
2023-02-25T18:58:45.708Z,4.54
2023-02-25T19:01:20.425Z,4.62
2023-02-25T19:03:48.451Z,4.47
2023-02-25T19:06:16.134Z,4.51
2023-02-25T19:08:43.695Z,4.46
2023-02-25T19:11:12.336Z,4.82
2023-02-25T19:13:43.042Z,4.49
2023-02-25T19:16:10.974Z,4.58
2023-02-25T19:18:39.442Z,4.43
2023-02-25T19:21:10.902Z,4.51
2023-02-25T19:23:38.529Z,4.21
2023-02-25T19:26:06.568Z,3.90
2023-02-25T19:28:34.398Z,3.94
2023-02-25T19:31:05.355Z,3.92
2023-02-25T19:33:32.944Z,3.79
2023-02-25T19:36:03.348Z,3.90
2023-02-25T19:38:31.171Z,3.75
2023-02-25T19:41:02.036Z,4.09
2023-02-25T19:43:31.295Z,3.74
2023-02-25T19:45:58.890Z,3.89
2023-02-25T19:48:27.916Z,3.54
2023-02-25T19:50:55.517Z,3.48
2023-02-25T19:53:23.154Z,3.40
2023-02-25T19:55:50.809Z,3.44
2023-02-25T19:58:18.433Z,3.33
2023-02-25T20:00:46.844Z,3.43
2023-02-25T20:03:15.339Z,3.36
2023-02-25T20:05:44.722Z,3.58
2023-02-25T20:08:14.585Z,3.78
2023-02-25T20:10:43.717Z,3.88
2023-02-25T20:13:11.392Z,3.67
2023-02-25T20:15:39.063Z,3.96
2023-02-25T20:18:06.815Z,3.87
2023-02-25T20:20:34.448Z,4.25
2023-02-25T20:23:04.832Z,4.28
2023-02-25T20:25:32.332Z,4.21
2023-02-25T20:27:59.838Z,4.06
2023-02-25T20:30:27.389Z,3.85
2023-02-25T20:32:55.116Z,4.05
2023-02-25T20:35:26.114Z,3.83
2023-02-25T20:38:12.104Z,3.91
2023-02-25T20:40:40.076Z,3.74
2023-02-25T20:43:07.771Z,3.71
2023-02-25T20:45:35.826Z,3.92
2023-02-25T20:48:03.492Z,3.75
2023-02-25T20:50:31.326Z,3.95
2023-02-25T20:52:59.321Z,3.49
2023-02-25T20:55:28.086Z,3.77
2023-02-25T20:57:55.733Z,3.76
2023-02-25T21:00:26.038Z,3.63
2023-02-25T21:02:53.429Z,3.48
2023-02-25T21:05:20.878Z,3.70
2023-02-25T21:07:48.788Z,3.65
2023-02-25T21:10:16.735Z,3.64
2023-02-25T21:12:45.840Z,3.66
2023-02-25T21:15:13.417Z,3.92
2023-02-25T21:17:42.273Z,3.75
2023-02-25T21:20:10.929Z,3.63
2023-02-25T21:22:38.524Z,3.73
2023-02-25T21:25:06.424Z,3.88
2023-02-25T21:27:34.165Z,3.88
2023-02-25T21:30:03.039Z,3.95
2023-02-25T21:32:30.464Z,3.74
2023-02-25T21:34:57.991Z,3.82
2023-02-25T21:37:25.528Z,3.87
2023-02-25T21:39:53.018Z,3.60
2023-02-25T21:42:20.503Z,3.67
2023-02-25T21:44:48.257Z,3.72
2023-02-25T21:47:17.106Z,3.68
2023-02-25T21:49:45.273Z,3.49
2023-02-25T21:52:12.682Z,3.51
2023-02-25T21:54:40.238Z,3.70
2023-02-25T21:57:07.712Z,3.85
2023-02-25T21:59:35.331Z,3.75
2023-02-25T22:02:04.895Z,3.54
2023-02-25T22:04:33.789Z,3.57
2023-02-25T22:07:01.327Z,3.76
2023-02-25T22:09:28.981Z,3.85
2023-02-25T22:11:57.035Z,4.00
2023-02-25T22:14:26.219Z,3.75
2023-02-25T22:16:53.707Z,3.91
2023-02-25T22:19:21.193Z,3.98
2023-02-25T22:21:50.165Z,3.93
2023-02-25T22:24:17.815Z,3.90
2023-02-25T22:26:47.195Z,3.92
2023-02-25T22:29:14.856Z,3.84
2023-02-25T22:31:42.484Z,3.94
2023-02-25T22:34:10.256Z,3.93
2023-02-25T22:36:38.460Z,4.15
2023-02-25T22:39:08.470Z,3.98
2023-02-25T22:41:36.535Z,3.59
2023-02-25T22:44:05.234Z,3.96
2023-02-25T22:46:35.944Z,3.76
2023-02-25T22:49:04.023Z,3.77
2023-02-25T22:51:33.366Z,3.92
2023-02-25T22:54:01.007Z,3.79
2023-02-25T22:56:29.853Z,3.97
2023-02-25T22:58:57.373Z,3.73
2023-02-25T23:01:25.782Z,3.44
2023-02-25T23:03:54.500Z,3.54
2023-02-25T23:06:34.256Z,3.59
2023-02-25T23:09:08.780Z,3.70
2023-02-25T23:11:37.624Z,3.55
2023-02-25T23:14:05.834Z,3.46
2023-02-25T23:16:35.543Z,3.39
2023-02-25T23:19:05.029Z,3.31
2023-02-25T23:21:33.068Z,3.41
2023-02-25T23:24:01.899Z,3.15
2023-02-25T23:26:33.273Z,2.96
2023-02-25T23:29:05.447Z,3.03
2023-02-25T23:31:34.642Z,2.81
2023-02-25T23:34:03.776Z,2.92
2023-02-25T23:36:31.511Z,2.90
2023-02-25T23:39:01.036Z,3.19
2023-02-25T23:41:29.475Z,3.31
2023-02-25T23:43:59.045Z,3.05
2023-02-25T23:46:30.124Z,3.38
2023-02-25T23:48:59.052Z,3.59
2023-02-25T23:51:27.203Z,3.64
2023-02-25T23:53:55.622Z,3.67
2023-02-25T23:56:23.883Z,3.71
2023-02-25T23:58:53.604Z,3.73
